Time;durP1;ratioP1;P1;durP2;ratioP2;P2;SDS_P1;SDS_P2;PMS_P1;PMS_P2;Temp;Humidity;BMP_temperature;BMP_pressure;BME280_temperature;BME280_humidity;BME280_pressure;Samples;Min_cycle;Max_cycle;Signal;HPM_P1;HPM_P2
2022/09/12 00:01:33;;;;;;;4.47;4.07;;;17.40;59.60;;;;;;5096758;28;20051;-43
2022/09/12 00:04:10;;;;;;;3.70;3.38;;;17.30;59.60;;;;;;5091360;28;20058;-46
2022/09/12 00:06:37;;;;;;;4.03;3.20;;;17.30;59.60;;;;;;5097110;28;20468;-46
2022/09/12 00:09:10;;;;;;;3.83;3.40;;;17.30;59.50;;;;;;5099262;28;20468;-45
2022/09/12 00:11:43;;;;;;;4.55;3.70;;;17.30;59.70;;;;;;5105388;28;20114;-44
2022/09/12 00:14:15;;;;;;;5.18;4.15;;;17.30;59.70;;;;;;5108080;28;20046;-49
2022/09/12 00:16:43;;;;;;;6.97;4.90;;;17.20;59.80;;;;;;5091542;28;20107;-46
2022/09/12 00:19:14;;;;;;;4.63;4.20;;;17.20;59.70;;;;;;5089389;28;20090;-46
2022/09/12 00:21:42;;;;;;;6.05;4.63;;;17.20;59.70;;;;;;5085314;28;20055;-45
2022/09/12 00:24:09;;;;;;;5.57;4.25;;;17.10;59.80;;;;;;5094357;28;20048;-45
2022/09/12 00:26:36;;;;;;;4.20;3.80;;;17.10;59.80;;;;;;5085546;28;20422;-47
2022/09/12 00:29:03;;;;;;;5.85;4.47;;;17.10;59.80;;;;;;5101161;28;20691;-44
2022/09/12 00:31:31;;;;;;;4.90;4.40;;;17.10;59.90;;;;;;5109395;28;20047;-48
2022/09/12 00:34:05;;;;;;;5.28;4.38;;;17.00;59.90;;;;;;5104795;28;20038;-47
2022/09/12 00:36:37;;;;;;;5.57;4.78;;;17.00;59.90;;;;;;5097326;28;20039;-46
2022/09/12 00:39:04;;;;;;;7.53;4.82;;;17.00;60.00;;;;;;5101004;28;20059;-45
2022/09/12 00:41:33;;;;;;;6.50;4.50;;;17.00;59.90;;;;;;5108901;28;20043;-47
2022/09/12 00:44:09;;;;;;;4.57;4.18;;;17.00;59.90;;;;;;5101849;28;20076;-47
2022/09/12 00:46:44;;;;;;;6.20;4.72;;;16.90;60.30;;;;;;5099649;28;20040;-49
2022/09/12 00:49:43;;;;;;;6.05;4.75;;;16.90;59.90;;;;;;5061198;28;20479;-47
2022/09/12 00:52:25;;;;;;;7.55;4.28;;;16.90;60.40;;;;;;5075771;28;20675;-47
2022/09/12 00:55:26;;;;;;;5.82;4.28;;;16.90;60.30;;;;;;5090322;28;20062;-46
2022/09/12 00:58:00;;;;;;;6.45;4.30;;;16.80;60.10;;;;;;5073581;28;20040;-47
2022/09/12 01:00:31;;;;;;;5.20;3.97;;;16.80;60.10;;;;;;5114576;28;20035;-47
2022/09/12 01:03:11;;;;;;;4.80;4.00;;;16.80;60.00;;;;;;5103978;28;20524;-44
2022/09/12 01:05:45;;;;;;;5.63;3.88;;;16.80;60.20;;;;;;5101494;28;20044;-48
2022/09/12 01:08:17;;;;;;;5.22;3.92;;;16.70;60.20;;;;;;5095235;28;20040;-45
2022/09/12 01:10:49;;;;;;;8.18;4.68;;;16.70;60.10;;;;;;5111091;28;20039;-47
2022/09/12 01:13:18;;;;;;;8.93;4.10;;;16.70;60.20;;;;;;5093414;28;20544;-46
2022/09/12 01:15:45;;;;;;;4.82;4.10;;;16.60;60.30;;;;;;5107770;28;20035;-46
2022/09/12 01:18:46;;;;;;;5.20;4.53;;;16.60;60.30;;;;;;5112873;28;20116;-46
2022/09/12 01:21:47;;;;;;;5.85;4.50;;;16.60;61.00;;;;;;5077718;28;20051;-45
2022/09/12 01:24:48;;;;;;;5.55;4.45;;;16.60;61.10;;;;;;5094802;28;20062;-48
2022/09/12 01:27:46;;;;;;;9.43;5.03;;;16.60;61.20;;;;;;5112520;28;20047;-46
2022/09/12 01:30:43;;;;;;;7.22;4.82;;;16.60;61.20;;;;;;5108583;28;20050;-45
2022/09/12 01:33:15;;;;;;;5.95;4.70;;;16.50;61.30;;;;;;5095456;28;20046;-45
2022/09/12 01:36:18;;;;;;;5.30;4.43;;;16.50;60.80;;;;;;5107895;28;20530;-43
2022/09/12 01:38:58;;;;;;;6.13;4.63;;;16.50;61.20;;;;;;5108270;28;20031;-49
2022/09/12 01:41:27;;;;;;;5.15;4.38;;;16.50;61.00;;;;;;5095900;28;20066;-47
2022/09/12 01:44:11;;;;;;;7.30;4.63;;;16.40;60.70;;;;;;5103989;28;20123;-45
2022/09/12 01:46:48;;;;;;;5.68;4.00;;;16.50;61.40;;;;;;5111560;28;20048;-46
2022/09/12 01:49:23;;;;;;;5.30;4.38;;;16.50;61.20;;;;;;5108471;28;20131;-45
2022/09/12 01:51:55;;;;;;;5.40;4.68;;;16.40;60.80;;;;;;5103731;28;20046;-45
2022/09/12 01:54:41;;;;;;;;;;;16.40;60.80;;;;;;5097164;28;20043;-45
2022/09/12 01:57:19;;;;;;;5.97;4.07;;;16.40;60.80;;;;;;5104726;28;19955;-45
2022/09/12 01:59:50;;;;;;;4.80;4.28;;;16.40;60.70;;;;;;5103730;28;20044;-45
2022/09/12 02:02:36;;;;;;;5.10;4.15;;;16.30;60.60;;;;;;5100570;28;20051;-46
2022/09/12 02:05:21;;;;;;;6.00;5.07;;;16.30;60.90;;;;;;5049569;28;20037;-48
2022/09/12 02:08:06;;;;;;;5.43;4.78;;;16.30;61.20;;;;;;5050577;28;20056;-47
2022/09/12 02:10:46;;;;;;;7.95;5.45;;;16.30;61.00;;;;;;5046577;28;20112;-46
2022/09/12 02:13:38;;;;;;;7.47;5.80;;;16.20;61.10;;;;;;5051016;28;20067;-49
2022/09/12 02:16:21;;;;;;;6.30;5.70;;;16.30;61.70;;;;;;5050166;28;20029;-47
2022/09/12 02:18:58;;;;;;;8.20;6.57;;;16.30;62.20;;;;;;5049268;28;20501;-48
2022/09/12 02:21:26;;;;;;;7.80;6.28;;;16.20;61.50;;;;;;5044742;28;20041;-47
2022/09/12 02:24:01;;;;;;;8.85;7.13;;;16.20;61.40;;;;;;5051188;28;20045;-47
2022/09/12 02:26:43;;;;;;;7.53;6.18;;;16.20;61.60;;;;;;5048930;28;20037;-47
2022/09/12 02:29:12;;;;;;;11.25;5.95;;;16.20;61.80;;;;;;5047798;28;20037;-48
2022/09/12 02:31:46;;;;;;;9.98;6.20;;;16.20;62.10;;;;;;5051489;28;20052;-47
2022/09/12 02:34:38;;;;;;;7.10;6.22;;;16.20;62.00;;;;;;5050521;28;20041;-47
2022/09/12 02:37:41;;;;;;;9.10;6.03;;;16.20;61.80;;;;;;5049338;28;20044;-47
2022/09/12 02:40:08;;;;;;;8.18;6.13;;;16.20;62.60;;;;;;5043398;28;20048;-48
2022/09/12 02:42:36;;;;;;;8.70;6.90;;;16.10;61.30;;;;;;5049862;28;20770;-47
2022/09/12 02:45:03;;;;;;;9.77;6.15;;;16.10;61.40;;;;;;5049650;28;20119;-49
2022/09/12 02:47:36;;;;;;;6.50;5.85;;;16.10;61.50;;;;;;5050232;28;20040;-47
2022/09/12 02:50:04;;;;;;;;;;;16.10;61.70;;;;;;5068734;28;20045;-48
2022/09/12 02:52:33;;;;;;;7.78;5.93;;;16.10;61.50;;;;;;5065260;28;20381;-47
2022/09/12 02:55:01;;;;;;;8.68;6.13;;;16.10;61.20;;;;;;5050181;28;20078;-46
2022/09/12 02:57:38;;;;;;;7.43;5.93;;;16.10;61.40;;;;;;5050100;28;20120;-48
2022/09/12 03:00:09;;;;;;;7.03;5.70;;;16.10;61.70;;;;;;5060815;28;20687;-47
2022/09/12 03:02:49;;;;;;;9.20;5.75;;;16.00;61.60;;;;;;5069906;28;20071;-47
2022/09/12 03:05:31;;;;;;;7.85;6.40;;;16.10;62.30;;;;;;5053875;28;20448;-48
2022/09/12 03:08:19;;;;;;;8.15;6.53;;;16.00;62.10;;;;;;5047292;28;20405;-48
2022/09/12 03:11:07;;;;;;;7.90;6.28;;;16.00;62.40;;;;;;5050614;28;20065;-47
2022/09/12 03:13:42;;;;;;;7.55;6.00;;;16.00;62.50;;;;;;5030473;28;20033;-47
2022/09/12 03:16:23;;;;;;;9.63;6.60;;;16.00;61.90;;;;;;5035753;28;20048;-48
2022/09/12 03:19:04;;;;;;;9.15;6.82;;;16.00;62.10;;;;;;5065905;28;20036;-47
2022/09/12 03:21:46;;;;;;;7.93;6.22;;;16.00;62.30;;;;;;5063461;28;20067;-47
2022/09/12 03:24:31;;;;;;;9.52;6.72;;;16.00;62.30;;;;;;5049917;28;20037;-48
2022/09/12 03:27:12;;;;;;;8.63;6.50;;;15.90;62.30;;;;;;5067009;28;20036;-47
2022/09/12 03:29:40;;;;;;;11.60;6.95;;;15.90;62.60;;;;;;5058488;28;20043;-47
2022/09/12 03:32:10;;;;;;;11.20;7.95;;;15.90;62.10;;;;;;5042871;28;20131;-48
2022/09/12 03:34:36;;;;;;;8.35;6.72;;;15.90;62.40;;;;;;5050001;28;20418;-48
2022/09/12 03:37:03;;;;;;;9.25;6.85;;;15.90;62.20;;;;;;5049494;28;20468;-47
2022/09/12 03:39:32;;;;;;;9.52;7.03;;;15.90;62.30;;;;;;5050322;28;20037;-47
2022/09/12 03:42:00;;;;;;;8.15;6.90;;;15.90;62.40;;;;;;5049365;28;20055;-47
2022/09/12 03:44:29;;;;;;;10.35;6.60;;;15.90;62.40;;;;;;5050003;28;20041;-48
2022/09/12 03:47:03;;;;;;;10.35;7.45;;;15.90;62.40;;;;;;5066254;28;20049;-48
2022/09/12 03:49:36;;;;;;;11.27;7.68;;;15.90;62.60;;;;;;5053235;28;20440;-47
2022/09/12 03:52:05;;;;;;;9.32;7.70;;;15.90;62.60;;;;;;5050684;28;20040;-47
2022/09/12 03:54:32;;;;;;;9.38;7.13;;;15.90;62.60;;;;;;5048778;28;20060;-47
2022/09/12 03:57:05;;;;;;;10.45;7.80;;;15.90;62.70;;;;;;5060307;28;20552;-47
2022/09/12 03:59:31;;;;;;;11.55;8.82;;;15.90;62.80;;;;;;5056537;28;20064;-48
2022/09/12 04:02:05;;;;;;;11.43;9.23;;;15.90;62.90;;;;;;5048791;28;20067;-48
2022/09/12 04:04:34;;;;;;;10.95;8.38;;;15.90;63.10;;;;;;5045993;28;20063;-48
2022/09/12 04:07:00;;;;;;;13.75;9.23;;;15.90;63.10;;;;;;5055290;28;20045;-47
2022/09/12 04:09:30;;;;;;;13.57;9.02;;;15.90;63.20;;;;;;5055924;28;20073;-47
2022/09/12 04:11:56;;;;;;;12.52;9.35;;;15.90;63.20;;;;;;5049152;28;20048;-47
2022/09/12 04:14:25;;;;;;;11.68;8.48;;;15.90;63.30;;;;;;5062045;28;20041;-48
2022/09/12 04:16:59;;;;;;;13.18;9.43;;;15.90;63.40;;;;;;5064596;28;20106;-46
2022/09/12 04:19:28;;;;;;;13.30;9.27;;;15.90;63.40;;;;;;5049082;28;20393;-48
2022/09/12 04:21:54;;;;;;;14.00;8.77;;;15.90;63.60;;;;;;5055208;28;20033;-48
2022/09/12 04:24:23;;;;;;;12.80;9.63;;;15.90;63.40;;;;;;5048248;28;20035;-50
2022/09/12 04:26:50;;;;;;;13.98;9.88;;;15.90;63.60;;;;;;5049020;28;20033;-51
2022/09/12 04:29:20;;;;;;;15.85;8.43;;;15.90;63.70;;;;;;5050538;28;20509;-48
2022/09/12 04:31:47;;;;;;;11.98;10.05;;;15.90;63.70;;;;;;5057222;28;20049;-47
2022/09/12 04:34:14;;;;;;;14.63;9.23;;;15.90;63.70;;;;;;5060349;28;20052;-52
2022/09/12 04:36:41;;;;;;;12.65;8.73;;;15.90;63.70;;;;;;5056878;28;20037;-48
2022/09/12 04:39:09;;;;;;;14.15;9.25;;;15.90;63.70;;;;;;5057300;28;20051;-50
2022/09/12 04:41:38;;;;;;;12.80;9.65;;;15.90;63.80;;;;;;5033039;28;20041;-47
2022/09/12 04:44:09;;;;;;;16.83;9.82;;;15.90;63.90;;;;;;5053502;28;20056;-48
2022/09/12 04:46:38;;;;;;;14.25;9.13;;;15.90;64.00;;;;;;5053800;28;20045;-49
2022/09/12 04:49:05;;;;;;;13.52;9.23;;;15.90;64.10;;;;;;5052701;28;20032;-47
2022/09/12 04:51:39;;;;;;;11.88;8.90;;;15.90;64.20;;;;;;5053216;28;20070;-49
2022/09/12 04:54:09;;;;;;;14.10;10.48;;;15.90;64.20;;;;;;5069286;28;20047;-47
2022/09/12 04:56:40;;;;;;;13.75;10.38;;;15.90;64.30;;;;;;5054299;28;20040;-47
2022/09/12 04:59:08;;;;;;;16.30;10.48;;;15.90;64.80;;;;;;5049210;28;20051;-51
2022/09/12 05:01:40;;;;;;;;;;;16.00;64.40;;;;;;5050418;28;20072;-50
2022/09/12 05:04:11;;;;;;;11.88;8.32;;;16.00;64.50;;;;;;5048852;28;20403;-51
2022/09/12 05:06:45;;;;;;;13.70;10.27;;;16.00;63.90;;;;;;5048987;28;20072;-52
2022/09/12 05:09:20;;;;;;;16.17;9.95;;;16.00;64.20;;;;;;5049330;28;20094;-48
2022/09/12 05:11:49;;;;;;;;;;;16.00;64.40;;;;;;5050019;28;20102;-53
2022/09/12 05:14:35;;;;;;;13.27;9.45;;;16.00;64.50;;;;;;5029978;28;19925;-54
2022/09/12 05:17:04;;;;;;;15.98;11.07;;;16.00;63.90;;;;;;5052562;28;20461;-56
2022/09/12 05:19:31;;;;;;;13.07;10.10;;;16.00;64.10;;;;;;5046290;28;20056;-55
2022/09/12 05:21:58;;;;;;;13.95;10.80;;;16.00;64.30;;;;;;5052494;28;20033;-51
2022/09/12 05:24:28;;;;;;;18.17;11.05;;;16.00;64.50;;;;;;5047635;28;20060;-54
2022/09/12 05:26:54;;;;;;;16.20;11.55;;;16.00;64.80;;;;;;5047337;28;20041;-57
2022/09/12 05:29:24;;;;;;;15.90;10.65;;;16.00;65.00;;;;;;5040031;28;20814;-57
2022/09/12 05:31:53;;;;;;;15.73;11.52;;;16.10;65.20;;;;;;5047803;28;20048;-54
2022/09/12 05:34:20;;;;;;;19.67;13.27;;;16.00;65.30;;;;;;5046651;28;20041;-55
2022/09/12 05:36:49;;;;;;;17.67;10.88;;;16.10;65.50;;;;;;5049551;28;20409;-56
2022/09/12 05:39:19;;;;;;;16.65;11.55;;;16.10;65.60;;;;;;5043265;28;20041;-56
2022/09/12 05:41:46;;;;;;;15.77;10.95;;;16.10;65.70;;;;;;5052675;28;20421;-56
2022/09/12 05:44:16;;;;;;;14.63;12.02;;;16.20;65.80;;;;;;5050784;28;20052;-57
2022/09/12 05:46:49;;;;;;;14.85;11.35;;;16.20;66.00;;;;;;5051811;28;20045;-56
2022/09/12 05:49:15;;;;;;;16.65;10.82;;;16.30;66.10;;;;;;5061534;28;20056;-55
2022/09/12 05:51:44;;;;;;;21.48;14.38;;;16.30;66.20;;;;;;5067822;28;20072;-57
2022/09/12 05:54:13;;;;;;;17.58;12.45;;;16.30;66.50;;;;;;5058851;28;20033;-54
2022/09/12 05:56:43;;;;;;;19.30;12.52;;;16.40;66.90;;;;;;5051868;28;20155;-55
2022/09/12 05:59:19;;;;;;;17.60;12.70;;;16.50;67.00;;;;;;5052248;28;20051;-57
2022/09/12 06:01:52;;;;;;;20.63;13.88;;;16.50;67.40;;;;;;5050989;28;20059;-54
2022/09/12 06:04:19;;;;;;;23.48;15.05;;;16.60;67.20;;;;;;5042023;28;20041;-57
2022/09/12 06:06:51;;;;;;;18.13;13.13;;;16.60;67.30;;;;;;5048574;28;20067;-56
2022/09/12 06:09:20;;;;;;;21.42;13.73;;;16.70;67.50;;;;;;5052037;28;20053;-55
2022/09/12 06:11:47;;;;;;;20.98;15.57;;;16.70;67.70;;;;;;5051826;28;20048;-55
2022/09/12 06:14:18;;;;;;;21.25;15.15;;;16.80;67.70;;;;;;5052722;28;20060;-56
2022/09/12 06:16:49;;;;;;;23.13;14.52;;;16.90;68.00;;;;;;5051077;28;20041;-56
2022/09/12 06:19:21;;;;;;;20.02;13.88;;;17.00;68.20;;;;;;5051409;28;20036;-56
2022/09/12 06:21:50;;;;;;;24.48;14.82;;;17.00;68.40;;;;;;5052525;28;20044;-55
2022/09/12 06:24:19;;;;;;;23.02;16.38;;;17.10;68.10;;;;;;5062102;28;20043;-56
2022/09/12 06:26:51;;;;;;;23.92;15.43;;;17.20;68.30;;;;;;5061518;28;20045;-52
2022/09/12 06:29:18;;;;;;;24.63;15.45;;;17.20;68.30;;;;;;5056011;28;20128;-53
2022/09/12 06:31:44;;;;;;;23.02;15.88;;;17.30;68.30;;;;;;5032844;28;20063;-52
2022/09/12 06:34:14;;;;;;;23.60;16.55;;;17.40;68.40;;;;;;5050778;28;20599;-53
2022/09/12 06:36:45;;;;;;;22.60;16.92;;;17.40;68.60;;;;;;5031641;28;20037;-55
2022/09/12 06:39:22;;;;;;;22.13;15.73;;;17.50;68.80;;;;;;5057690;28;20068;-56
2022/09/12 06:41:50;;;;;;;24.75;16.02;;;17.60;68.50;;;;;;5048681;28;20049;-56
2022/09/12 06:44:31;;;;;;;24.80;15.85;;;17.70;68.40;;;;;;5046063;28;20060;-54
2022/09/12 06:46:58;;;;;;;23.40;17.08;;;17.70;68.20;;;;;;5051097;28;20420;-56
2022/09/12 06:49:30;;;;;;;22.35;15.85;;;17.80;68.20;;;;;;5051495;28;20041;-56
2022/09/12 06:52:06;;;;;;;27.10;16.67;;;17.90;68.20;;;;;;5043683;28;20425;-52
2022/09/12 06:54:37;;;;;;;23.30;16.40;;;18.00;68.40;;;;;;5051542;28;20512;-56
2022/09/12 06:57:04;;;;;;;24.65;16.58;;;18.00;68.30;;;;;;5049329;28;20128;-53
2022/09/12 06:59:30;;;;;;;20.77;15.43;;;18.10;68.20;;;;;;5051451;28;20381;-54
2022/09/12 07:01:57;;;;;;;20.77;15.73;;;18.10;68.10;;;;;;5050833;28;20041;-54
2022/09/12 07:04:24;;;;;;;21.77;16.70;;;18.20;68.10;;;;;;5032171;28;20041;-52
2022/09/12 07:06:50;;;;;;;23.17;16.42;;;18.20;68.10;;;;;;5034330;28;20523;-54
2022/09/12 07:09:17;;;;;;;22.88;16.73;;;18.30;68.10;;;;;;5050385;28;20055;-53
2022/09/12 07:11:45;;;;;;;26.05;16.67;;;18.30;68.20;;;;;;5051437;28;20033;-53
2022/09/12 07:14:13;;;;;;;21.67;15.65;;;18.40;68.20;;;;;;5051148;28;20055;-54
2022/09/12 07:16:40;;;;;;;21.55;15.85;;;18.40;68.10;;;;;;5048983;28;20043;-54
2022/09/12 07:19:11;;;;;;;21.38;15.00;;;18.50;68.20;;;;;;5059757;28;20045;-55
2022/09/12 07:21:43;;;;;;;22.08;16.15;;;18.60;68.30;;;;;;5062631;28;20457;-54
2022/09/12 07:24:10;;;;;;;23.63;15.85;;;18.60;68.40;;;;;;5065762;28;20059;-55
2022/09/12 07:26:41;;;;;;;22.02;16.13;;;18.70;68.80;;;;;;5050715;28;20045;-52
2022/09/12 07:29:15;;;;;;;20.45;15.70;;;18.70;68.00;;;;;;5051775;28;20436;-55
2022/09/12 07:32:04;;;;;;;20.80;15.20;;;18.80;68.20;;;;;;5051206;28;20048;-52
2022/09/12 07:34:31;;;;;;;19.23;15.05;;;18.80;67.60;;;;;;5050379;28;20124;-55
2022/09/12 07:37:00;;;;;;;25.85;16.77;;;18.90;67.50;;;;;;5049999;28;20067;-51
2022/09/12 07:39:32;;;;;;;21.02;15.10;;;18.90;67.40;;;;;;5045016;28;20108;-54
2022/09/12 07:41:59;;;;;;;22.05;16.02;;;18.90;67.30;;;;;;5051268;28;20052;-53
2022/09/12 07:44:27;;;;;;;22.48;14.90;;;18.90;67.30;;;;;;5033590;28;20064;-52
2022/09/12 07:46:53;;;;;;;21.02;16.35;;;18.90;67.40;;;;;;5049070;28;20063;-54
2022/09/12 07:49:20;;;;;;;20.33;15.85;;;18.90;67.40;;;;;;5051359;28;20047;-54
2022/09/12 07:51:47;;;;;;;19.13;14.63;;;18.90;67.40;;;;;;5051078;28;20075;-49
2022/09/12 07:54:14;;;;;;;18.85;14.48;;;18.90;67.50;;;;;;5049542;28;20037;-54
2022/09/12 07:56:42;;;;;;;23.83;16.02;;;18.90;67.70;;;;;;5050163;28;20044;-54
2022/09/12 07:59:12;;;;;;;22.85;15.52;;;18.90;67.80;;;;;;5050253;28;20052;-54
2022/09/12 08:01:40;;;;;;;21.48;15.07;;;19.00;67.80;;;;;;5032243;28;20478;-52
2022/09/12 08:04:07;;;;;;;23.33;15.98;;;19.00;68.00;;;;;;5049700;28;20045;-51
2022/09/12 08:06:35;;;;;;;22.15;14.90;;;19.00;68.20;;;;;;5047920;28;20041;-54
2022/09/12 08:09:10;;;;;;;19.02;13.27;;;19.00;68.10;;;;;;5050238;28;20127;-54
2022/09/12 08:11:37;;;;;;;19.90;15.45;;;19.10;68.10;;;;;;5050431;28;20081;-54
2022/09/12 08:14:04;;;;;;;21.02;15.35;;;19.00;68.20;;;;;;5049395;28;20037;-54
2022/09/12 08:16:34;;;;;;;21.42;15.32;;;19.10;68.30;;;;;;5049450;28;20036;-55
2022/09/12 08:19:02;;;;;;;20.02;14.77;;;19.10;68.30;;;;;;5050719;28;20033;-54
2022/09/12 08:21:31;;;;;;;21.13;14.27;;;19.10;68.40;;;;;;5051129;28;20660;-55
2022/09/12 08:24:03;;;;;;;21.50;15.32;;;19.20;68.40;;;;;;5048737;28;20098;-53
2022/09/12 08:26:31;;;;;;;20.03;15.53;;;19.20;68.40;;;;;;5049220;28;20041;-54
2022/09/12 08:28:58;;;;;;;24.13;16.63;;;19.20;68.50;;;;;;5050394;28;20048;-54
2022/09/12 08:31:40;;;;;;;26.95;15.85;;;19.30;68.60;;;;;;5049177;28;20041;-54
2022/09/12 08:34:10;;;;;;;20.45;14.23;;;19.30;68.70;;;;;;5049620;28;20049;-54
2022/09/12 08:36:40;;;;;;;21.92;14.95;;;19.30;68.60;;;;;;5049788;28;20041;-53
2022/09/12 08:39:09;;;;;;;19.65;15.57;;;19.40;68.80;;;;;;5050678;28;20051;-54
2022/09/12 08:41:43;;;;;;;17.10;13.00;;;19.40;68.60;;;;;;5047764;28;20497;-54
2022/09/12 08:44:28;;;;;;;20.45;14.32;;;19.40;68.70;;;;;;5056596;28;20441;-55
2022/09/12 08:47:03;;;;;;;19.85;13.80;;;19.50;69.60;;;;;;5048910;28;20049;-54
2022/09/12 08:49:37;;;;;;;19.27;13.88;;;19.50;68.60;;;;;;5049155;28;20048;-54
2022/09/12 08:52:23;;;;;;;18.20;13.75;;;19.60;68.90;;;;;;5048907;28;20123;-54
2022/09/12 08:54:50;;;;;;;18.40;14.07;;;19.60;69.20;;;;;;5044816;28;20132;-55
2022/09/12 08:57:17;;;;;;;15.85;12.63;;;19.70;68.60;;;;;;5050027;28;20037;-54
2022/09/12 08:59:45;;;;;;;19.27;13.13;;;19.70;68.40;;;;;;5048799;28;20056;-53
2022/09/12 09:02:39;;;;;;;17.60;12.45;;;19.80;68.80;;;;;;5049850;28;20425;-54
2022/09/12 09:05:43;;;;;;;15.68;12.00;;;19.80;69.30;;;;;;5067572;28;20059;-54
2022/09/12 09:08:09;;;;;;;16.88;13.25;;;19.90;68.70;;;;;;5090603;22;20835;-55
2022/09/12 09:11:09;;;;;;;19.92;13.25;;;20.00;68.10;;;;;;5091607;28;20055;-54
2022/09/12 09:16:35;;;;;;;14.98;11.82;;;20.10;68.40;;;;;;5091422;28;20578;-51
2022/09/12 09:19:08;;;;;;;13.80;10.98;;;20.20;68.00;;;;;;5105753;28;20111;-55
2022/09/12 09:21:43;;;;;;;14.30;10.60;;;20.30;68.00;;;;;;5079622;28;20079;-52
2022/09/12 09:24:17;;;;;;;11.77;9.82;;;20.30;68.20;;;;;;5087243;28;20060;-53
2022/09/12 09:27:02;;;;;;;12.43;9.32;;;20.40;67.60;;;;;;5111647;28;20050;-53
2022/09/12 09:29:40;;;;;;;14.43;10.23;;;20.50;67.80;;;;;;5095255;28;20078;-54
2022/09/12 09:32:26;;;;;;;14.75;9.50;;;20.60;67.40;;;;;;5101852;28;20043;-55
2022/09/12 09:34:55;;;;;;;12.45;9.13;;;20.60;67.30;;;;;;5111324;28;20040;-55
2022/09/12 09:37:56;;;;;;;12.68;9.55;;;20.70;67.10;;;;;;5087592;28;20028;-55
2022/09/12 09:40:48;;;;;;;11.48;9.20;;;20.80;66.90;;;;;;5100762;28;20040;-56
2022/09/12 09:43:24;;;;;;;9.00;7.07;;;20.90;66.90;;;;;;5104043;28;20047;-55
2022/09/12 09:45:51;;;;;;;6.57;5.97;;;21.00;65.80;;;;;;5112601;28;20471;-54
2022/09/12 09:48:34;;;;;;;7.50;6.35;;;21.00;65.30;;;;;;5103817;28;20036;-56
2022/09/12 09:51:05;;;;;;;5.95;5.35;;;21.10;65.00;;;;;;5096044;28;20044;-55
2022/09/12 09:53:54;;;;;;;6.03;5.43;;;21.20;64.20;;;;;;5095170;28;20046;-55
2022/09/12 09:56:39;;;;;;;6.20;5.60;;;21.30;64.30;;;;;;5090117;28;20039;-51
2022/09/12 09:59:19;;;;;;;7.22;5.43;;;21.40;63.80;;;;;;5105903;28;20042;-56
2022/09/12 10:01:53;;;;;;;5.97;5.45;;;21.40;63.60;;;;;;5089994;28;20040;-52
2022/09/12 10:04:28;;;;;;;5.07;4.57;;;21.50;63.00;;;;;;5102028;28;20499;-56
2022/09/12 10:07:00;;;;;;;5.35;4.88;;;21.60;63.00;;;;;;5073111;28;20090;-55
2022/09/12 10:09:34;;;;;;;4.40;4.07;;;21.70;63.00;;;;;;5104665;28;20471;-55
2022/09/12 10:12:34;;;;;;;4.40;4.03;;;21.80;62.10;;;;;;5074248;28;20143;-55
2022/09/12 10:15:28;;;;;;;4.38;3.85;;;21.90;61.60;;;;;;5041715;28;20142;-55
2022/09/12 10:17:58;;;;;;;4.30;3.45;;;22.00;61.00;;;;;;5094400;28;20122;-55
2022/09/12 10:20:41;;;;;;;5.10;3.50;;;22.00;60.80;;;;;;5099148;28;20381;-54
2022/09/12 10:23:34;;;;;;;4.00;3.60;;;22.10;60.20;;;;;;5081827;28;20059;-54
2022/09/12 10:26:07;;;;;;;3.45;3.25;;;22.20;59.80;;;;;;5093558;28;20073;-54
2022/09/12 10:28:42;;;;;;;3.95;3.28;;;22.30;60.20;;;;;;5090856;28;20068;-53
2022/09/12 10:31:14;;;;;;;4.68;4.28;;;22.40;60.80;;;;;;5070266;28;20047;-54
2022/09/12 10:33:53;;;;;;;4.55;3.63;;;22.50;59.60;;;;;;5100807;28;20744;-55
2022/09/12 10:36:23;;;;;;;3.13;2.92;;;22.50;59.50;;;;;;5090674;28;20063;-54
2022/09/12 10:38:52;;;;;;;3.50;2.92;;;22.60;59.30;;;;;;5090417;28;20420;-54
2022/09/12 10:41:20;;;;;;;3.58;3.00;;;22.70;59.30;;;;;;5095788;28;20396;-55
2022/09/12 10:43:49;;;;;;;3.15;2.95;;;22.80;59.10;;;;;;5088184;28;20032;-56
2022/09/12 10:46:18;;;;;;;3.33;3.03;;;22.90;58.40;;;;;;5107488;28;20089;-55
2022/09/12 10:48:49;;;;;;;2.85;2.65;;;22.90;57.60;;;;;;5089905;28;20055;-52
2022/09/12 10:51:27;;;;;;;3.95;2.90;;;23.00;57.70;;;;;;5091957;28;20041;-53
2022/09/12 10:53:58;;;;;;;3.03;2.80;;;23.10;57.40;;;;;;5096086;28;20050;-55
2022/09/12 10:56:32;;;;;;;3.40;3.10;;;23.20;57.30;;;;;;5106557;28;20039;-55
2022/09/12 10:59:20;;;;;;;3.78;3.17;;;23.20;57.40;;;;;;5099111;28;20042;-55
2022/09/12 11:02:02;;;;;;;4.70;3.25;;;23.30;57.40;;;;;;5084183;28;20044;-52
2022/09/12 11:04:40;;;;;;;3.38;3.08;;;23.40;56.40;;;;;;5102044;28;20063;-56
2022/09/12 11:07:31;;;;;;;3.40;3.10;;;23.50;56.10;;;;;;5100295;28;20093;-54
2022/09/12 11:10:19;;;;;;;3.88;3.47;;;23.60;56.70;;;;;;5092553;28;20059;-55
2022/09/12 11:12:50;;;;;;;3.35;3.05;;;23.70;57.20;;;;;;5094435;28;20047;-56
2022/09/12 11:15:44;;;;;;;3.13;2.92;;;23.80;56.80;;;;;;5109018;28;20039;-55
2022/09/12 11:18:36;;;;;;;2.92;2.53;;;23.80;56.30;;;;;;5111512;28;20036;-55
2022/09/12 11:21:26;;;;;;;2.83;2.50;;;24.00;56.10;;;;;;5096278;28;20028;-54
2022/09/12 11:24:22;;;;;;;2.97;2.58;;;24.00;55.70;;;;;;5094861;28;20040;-55
2022/09/12 11:27:07;;;;;;;3.45;2.45;;;24.10;55.10;;;;;;5091558;28;20046;-55
2022/09/12 11:29:48;;;;;;;3.10;2.80;;;24.20;55.40;;;;;;5092950;28;20044;-56
2022/09/12 11:32:14;;;;;;;2.92;2.72;;;24.30;53.70;;;;;;5109598;28;20048;-56
2022/09/12 11:34:57;;;;;;;2.97;2.60;;;24.30;54.30;;;;;;5106872;28;20050;-56
2022/09/12 11:37:42;;;;;;;3.10;2.80;;;24.40;53.80;;;;;;5099043;28;20399;-53
2022/09/12 11:40:19;;;;;;;3.25;2.28;;;24.50;53.70;;;;;;5097703;28;20089;-55
2022/09/12 11:42:48;;;;;;;2.42;2.22;;;24.60;53.10;;;;;;5104950;28;20059;-56
2022/09/12 11:45:28;;;;;;;3.00;2.80;;;24.60;53.00;;;;;;5071583;28;20436;-55
2022/09/12 11:48:03;;;;;;;2.55;2.30;;;24.70;53.20;;;;;;5082484;28;20084;-55
2022/09/12 11:50:31;;;;;;;3.33;3.00;;;24.80;53.60;;;;;;5099647;28;20039;-55
2022/09/12 11:53:06;;;;;;;2.22;2.13;;;24.90;54.10;;;;;;5091347;28;20032;-55
2022/09/12 11:55:54;;;;;;;2.45;2.25;;;24.90;52.50;;;;;;5091125;28;20055;-56
2022/09/12 11:58:28;;;;;;;2.95;2.75;;;25.00;52.00;;;;;;5067098;28;20051;-54
2022/09/12 12:01:03;;;;;;;3.35;3.05;;;25.10;52.60;;;;;;5090646;28;20043;-56
2022/09/12 12:03:37;;;;;;;2.60;2.40;;;25.10;52.20;;;;;;5098173;28;20039;-55
2022/09/12 12:06:18;;;;;;;2.72;2.30;;;25.20;52.20;;;;;;5102763;28;20035;-55
2022/09/12 12:08:50;;;;;;;;;;;25.30;52.40;;;;;;5092851;28;20102;-55
2022/09/12 12:11:26;;;;;;;3.38;3.13;;;25.40;53.00;;;;;;5098518;28;19919;-55
2022/09/12 12:14:01;;;;;;;2.92;2.65;;;25.50;51.90;;;;;;5103433;28;20488;-55
2022/09/12 12:16:37;;;;;;;5.13;3.08;;;25.50;51.30;;;;;;5097430;28;20050;-55
2022/09/12 12:19:13;;;;;;;3.50;3.20;;;25.60;52.00;;;;;;5108224;28;20487;-55
2022/09/12 12:21:48;;;;;;;3.33;2.75;;;25.70;51.30;;;;;;5100002;28;20039;-54
2022/09/12 12:24:27;;;;;;;4.63;2.78;;;25.80;51.80;;;;;;5091339;28;20036;-56
2022/09/12 12:27:03;;;;;;;2.83;2.63;;;25.90;50.80;;;;;;5087241;28;20088;-56
2022/09/12 12:29:39;;;;;;;2.97;2.78;;;26.00;51.70;;;;;;5097594;28;20050;-56
2022/09/12 12:32:09;;;;;;;2.35;2.15;;;26.10;51.90;;;;;;5103213;28;20096;-55
2022/09/12 12:34:38;;;;;;;3.90;2.55;;;26.20;52.10;;;;;;5110448;28;20046;-54
2022/09/12 12:37:28;;;;;;;3.00;2.80;;;26.20;51.50;;;;;;5091619;28;20046;-56
2022/09/12 12:40:07;;;;;;;2.92;2.72;;;26.40;50.40;;;;;;5095960;28;20067;-56
2022/09/12 12:42:36;;;;;;;3.40;3.10;;;26.50;49.60;;;;;;5111537;28;20118;-56
2022/09/12 12:45:24;;;;;;;2.92;2.72;;;26.50;50.40;;;;;;5104397;28;20115;-55
2022/09/12 12:48:17;;;;;;;2.67;2.25;;;26.60;49.70;;;;;;5105527;28;20039;-56
2022/09/12 12:50:48;;;;;;;2.72;2.53;;;26.80;49.90;;;;;;5111125;28;20472;-56
2022/09/12 12:53:24;;;;;;;2.78;2.58;;;26.80;50.20;;;;;;5101162;28;20048;-56
2022/09/12 12:55:53;;;;;;;3.22;3.03;;;26.90;49.50;;;;;;5098257;28;20122;-56
2022/09/12 12:58:32;;;;;;;3.97;3.15;;;27.10;49.10;;;;;;5094132;28;20652;-55
2022/09/12 13:01:17;;;;;;;3.15;2.60;;;27.10;47.80;;;;;;5099687;28;20077;-54
2022/09/12 13:04:03;;;;;;;2.78;2.58;;;27.20;48.10;;;;;;5105985;28;20051;-56
2022/09/12 13:06:36;;;;;;;2.90;2.70;;;27.40;48.10;;;;;;5100819;28;20048;-54
2022/09/12 13:09:40;;;;;;;2.47;2.28;;;27.50;48.70;;;;;;5074749;28;20040;-56
2022/09/12 13:12:18;;;;;;;2.60;2.40;;;27.60;47.90;;;;;;5074606;28;20047;-56
2022/09/12 13:14:45;;;;;;;3.80;2.70;;;27.80;48.10;;;;;;5104298;28;20488;-56
2022/09/12 13:17:27;;;;;;;4.18;2.90;;;27.90;47.60;;;;;;5105995;28;20047;-55
2022/09/12 13:20:24;;;;;;;3.03;2.80;;;28.10;47.30;;;;;;5115136;28;20492;-56
2022/09/12 13:22:55;;;;;;;3.05;2.75;;;28.20;46.90;;;;;;5074910;28;20047;-55